Time;durP1;ratioP1;P1;durP2;ratioP2;P2;SDS_P1;SDS_P2;PMS_P1;PMS_P2;Temp;Humidity;BMP_temperature;BMP_pressure;BME280_temperature;BME280_humidity;BME280_pressure;Samples;Min_cycle;Max_cycle;Signal;HPM_P1;HPM_P2
2023/10/18 00:01:09;;;;;;;9.10;8.30;;;;;;;11.32;100.00;95025.28;5072211;28;20931;-75
2023/10/18 00:03:37;;;;;;;14.63;8.33;;;;;;;11.39;100.00;95026.41;5053261;28;20447;-75
2023/10/18 00:06:11;;;;;;;9.97;9.07;;;;;;;11.47;100.00;95031.00;5072063;28;21014;-74
2023/10/18 00:08:39;;;;;;;8.73;7.93;;;;;;;11.53;100.00;95034.91;5072583;28;20842;-74
2023/10/18 00:11:06;;;;;;;8.73;7.83;;;;;;;11.53;100.00;95033.09;5072032;28;20447;-74
2023/10/18 00:13:34;;;;;;;9.00;8.20;;;;;;;11.54;99.62;95029.50;5072228;28;20452;-75
2023/10/18 00:16:02;;;;;;;9.60;8.20;;;;;;;11.54;99.12;95024.25;5072035;28;20479;-74
2023/10/18 00:18:30;;;;;;;9.37;8.37;;;;;;;11.57;99.84;95029.25;5072040;28;20449;-75
2023/10/18 00:21:00;;;;;;;9.53;8.63;;;;;;;11.60;99.57;95029.00;5072165;28;20528;-75
2023/10/18 00:23:27;;;;;;;9.70;8.40;;;;;;;11.66;98.56;95019.75;5072218;28;20947;-75
2023/10/18 00:25:54;;;;;;;9.17;8.23;;;;;;;11.68;99.42;95025.69;5071991;28;20440;-75
2023/10/18 00:28:21;;;;;;;9.10;8.20;;;;;;;11.71;98.71;95020.16;5072069;28;20917;-75
2023/10/18 00:30:51;;;;;;;9.00;8.10;;;;;;;11.74;99.86;95019.91;5072196;28;20444;-75
2023/10/18 00:33:19;;;;;;;10.00;9.10;;;;;;;11.75;100.00;95017.13;5072390;28;20799;-75
2023/10/18 00:35:47;;;;;;;8.67;7.77;;;;;;;11.74;99.01;95015.47;5071895;28;20477;-74
2023/10/18 00:38:17;;;;;;;10.97;9.67;;;;;;;11.69;99.19;95011.59;5037195;28;20854;-75
2023/10/18 00:40:45;;;;;;;11.13;9.60;;;;;;;11.57;98.63;95017.91;5072162;28;20452;-75
2023/10/18 00:43:19;;;;;;;11.23;10.13;;;;;;;11.39;100.00;95007.19;5075830;28;20445;-75
2023/10/18 00:45:50;;;;;;;11.83;10.37;;;;;;;11.11;100.00;95011.34;5075504;28;20453;-74
2023/10/18 00:48:19;;;;;;;12.67;11.33;;;;;;;10.97;100.00;95007.25;5075876;28;20562;-75
2023/10/18 00:50:48;;;;;;;14.97;10.90;;;;;;;10.74;100.00;95006.56;5075524;28;20445;-75
2023/10/18 00:53:19;;;;;;;13.43;10.57;;;;;;;10.63;100.00;95009.25;5075264;28;20787;-75
2023/10/18 00:55:48;;;;;;;13.07;11.77;;;;;;;10.58;100.00;95007.97;5075812;28;20444;-75
2023/10/18 00:58:15;;;;;;;13.77;11.43;;;;;;;10.45;100.00;95005.53;5075208;28;20935;-75
2023/10/18 01:00:43;;;;;;;13.40;11.97;;;;;;;10.45;100.00;95006.38;5075550;28;20480;-75
2023/10/18 01:03:21;;;;;;;14.53;12.10;;;;;;;10.31;100.00;95011.91;5056384;28;20794;-75
2023/10/18 01:06:00;;;;;;;15.80;12.50;;;;;;;10.36;100.00;95009.72;5075066;28;20970;-75
2023/10/18 01:08:29;;;;;;;15.03;11.77;;;;;;;10.47;100.00;95009.69;5075183;28;20444;-75
2023/10/18 01:11:01;;;;;;;15.67;13.30;;;;;;;10.49;100.00;95005.16;5039970;28;20452;-74
2023/10/18 01:13:28;;;;;;;15.83;12.77;;;;;;;10.49;100.00;95020.91;5075391;28;20440;-74
2023/10/18 01:15:56;;;;;;;16.30;13.13;;;;;;;10.57;100.00;95015.00;5056111;28;20456;-75
2023/10/18 01:18:24;;;;;;;15.73;12.63;;;;;;;10.61;100.00;95020.81;5075089;28;20509;-75
2023/10/18 01:20:52;;;;;;;18.37;14.40;;;;;;;10.68;100.00;95019.34;5075127;28;20452;-75
2023/10/18 01:23:19;;;;;;;16.60;12.70;;;;;;;10.71;100.00;95019.97;5074924;28;20448;-75
2023/10/18 01:25:48;;;;;;;17.10;13.07;;;;;;;10.66;100.00;95016.03;5074812;28;20452;-75
2023/10/18 01:28:14;;;;;;;16.47;12.90;;;;;;;10.42;100.00;95014.50;5074597;28;20491;-75
2023/10/18 01:30:41;;;;;;;18.00;13.70;;;;;;;10.38;100.00;95010.44;5039565;28;20445;-75
2023/10/18 01:33:10;;;;;;;22.13;13.50;;;;;;;10.21;100.00;95008.38;5074791;28;20445;-75
2023/10/18 01:35:46;;;;;;;16.17;13.83;;;;;;;10.12;100.00;95003.81;5074603;28;20537;-75
2023/10/18 01:38:14;;;;;;;16.23;13.30;;;;;;;10.06;100.00;95002.53;5074583;28;20484;-75
2023/10/18 01:40:52;;;;;;;18.87;14.83;;;;;;;9.81;100.00;95011.53;5055987;28;20527;-76
2023/10/18 01:43:19;;;;;;;21.07;13.90;;;;;;;9.85;100.00;95015.59;5074449;28;20933;-75
2023/10/18 01:45:49;;;;;;;19.80;15.23;;;;;;;9.90;100.00;95013.44;5074660;28;20471;-75
2023/10/18 01:48:19;;;;;;;19.90;14.47;;;;;;;10.10;100.00;95018.84;5074484;28;20488;-76
2023/10/18 01:50:47;;;;;;;20.40;15.63;;;;;;;10.14;100.00;95015.06;5074524;28;20444;-75
2023/10/18 01:53:18;;;;;;;20.47;14.23;;;;;;;10.27;100.00;95018.34;5005788;28;20444;-75
2023/10/18 01:55:47;;;;;;;21.13;14.47;;;;;;;10.45;100.00;95014.25;5074180;28;21004;-75
2023/10/18 01:58:15;;;;;;;19.10;13.67;;;;;;;10.59;100.00;95005.22;5074245;28;20919;-75
2023/10/18 02:00:44;;;;;;;19.27;14.97;;;;;;;10.77;100.00;95002.84;5074261;28;20484;-75
2023/10/18 02:03:13;;;;;;;17.87;13.60;;;;;;;10.90;100.00;95008.72;5073899;28;20819;-75
2023/10/18 02:05:43;;;;;;;20.77;13.43;;;;;;;10.99;100.00;95015.84;5073918;28;20944;-75
2023/10/18 02:08:11;;;;;;;14.60;12.43;;;;;;;11.02;100.00;95012.13;5073901;28;20480;-75
2023/10/18 02:10:40;;;;;;;16.80;12.10;;;;;;;11.08;100.00;95016.84;5073789;28;20935;-75
2023/10/18 02:13:08;;;;;;;13.80;10.83;;;;;;;11.14;100.00;95017.16;5074050;28;20527;-75
2023/10/18 02:15:39;;;;;;;15.60;11.53;;;;;;;11.21;100.00;95011.38;5073768;28;20445;-76
2023/10/18 02:18:06;;;;;;;14.73;12.60;;;;;;;11.25;100.00;95012.78;5034107;28;20754;-75
2023/10/18 02:20:35;;;;;;;14.33;12.20;;;;;;;11.27;100.00;95022.19;5033720;28;20446;-75
2023/10/18 02:23:02;;;;;;;16.20;12.17;;;;;;;11.24;100.00;95017.19;5034140;28;21017;-75
2023/10/18 02:25:38;;;;;;;18.33;13.30;;;;;;;11.27;100.00;95016.94;5033741;28;20446;-75
2023/10/18 02:28:09;;;;;;;16.03;12.60;;;;;;;11.28;100.00;95020.44;5033833;28;20485;-75
2023/10/18 02:30:40;;;;;;;18.33;13.60;;;;;;;11.31;100.00;95010.50;5033476;28;20473;-75
2023/10/18 02:33:07;;;;;;;21.17;14.63;;;;;;;11.28;100.00;95008.13;5033398;28;20447;-75
2023/10/18 02:35:37;;;;;;;17.47;13.60;;;;;;;11.31;100.00;95015.75;5033508;28;20452;-75
2023/10/18 02:38:09;;;;;;;14.43;12.90;;;;;;;11.26;100.00;95015.28;5033397;28;20791;-75
2023/10/18 02:40:39;;;;;;;17.67;13.57;;;;;;;11.25;100.00;95018.03;4998317;28;20442;-75
2023/10/18 02:43:11;;;;;;;19.47;15.00;;;;;;;11.17;100.00;95014.28;5033229;28;20945;-75
2023/10/18 02:45:42;;;;;;;15.40;12.63;;;;;;;11.10;100.00;95020.19;5032965;28;20891;-75
2023/10/18 02:48:13;;;;;;;21.83;17.20;;;;;;;11.16;100.00;95009.16;5033343;28;20487;-76
2023/10/18 02:50:41;;;;;;;26.23;15.53;;;;;;;11.20;100.00;95020.22;4999691;28;20442;-75
2023/10/18 02:53:07;;;;;;;19.47;15.50;;;;;;;11.16;100.00;95023.13;5033248;28;20454;-75
2023/10/18 02:55:38;;;;;;;16.00;11.97;;;;;;;11.21;100.00;95016.63;5033036;28;20443;-75
2023/10/18 02:58:06;;;;;;;21.57;13.27;;;;;;;11.28;100.00;95015.19;5033069;28;20975;-75
2023/10/18 03:00:42;;;;;;;18.40;13.33;;;;;;;11.34;100.00;95004.97;5032844;28;20457;-74
2023/10/18 03:03:09;;;;;;;16.73;12.40;;;;;;;11.37;100.00;95002.06;5032828;28;20446;-75
2023/10/18 03:05:41;;;;;;;15.17;11.80;;;;;;;11.36;100.00;95005.66;5032465;28;20485;-75
2023/10/18 03:08:10;;;;;;;16.90;11.90;;;;;;;11.12;100.00;95008.59;5032780;28;20525;-75
2023/10/18 03:10:43;;;;;;;15.10;11.50;;;;;;;11.15;100.00;95012.75;5033120;28;20522;-74
2023/10/18 03:13:13;;;;;;;11.70;10.60;;;;;;;11.20;100.00;95010.56;4998977;28;20478;-75
2023/10/18 03:15:52;;;;;;;12.83;10.70;;;;;;;11.25;100.00;94997.84;5033275;28;20446;-75
2023/10/18 03:18:24;;;;;;;13.20;11.10;;;;;;;11.35;100.00;95009.25;5072741;28;20472;-75
2023/10/18 03:20:53;;;;;;;12.33;10.27;;;;;;;11.37;100.00;95011.75;5072577;28;20786;-75
2023/10/18 03:23:20;;;;;;;13.07;10.03;;;;;;;11.15;100.00;95005.69;5072617;28;20998;-75
2023/10/18 03:25:48;;;;;;;13.47;11.63;;;;;;;11.18;100.00;94996.72;5072368;28;20498;-75
2023/10/18 03:28:15;;;;;;;11.60;10.37;;;;;;;10.92;100.00;94996.31;5072680;28;20518;-75
2023/10/18 03:30:45;;;;;;;13.03;10.13;;;;;;;10.88;100.00;94989.66;5072741;28;20440;-76
2023/10/18 03:33:13;;;;;;;11.10;9.80;;;;;;;10.98;100.00;95001.03;5072702;28;20476;-75
2023/10/18 03:35:40;;;;;;;11.70;10.33;;;;;;;11.01;100.00;95000.81;5071681;28;20923;-75
2023/10/18 03:38:17;;;;;;;13.33;11.53;;;;;;;11.10;100.00;94992.13;5071958;28;20448;-75
2023/10/18 03:40:47;;;;;;;15.03;11.27;;;;;;;11.11;100.00;94980.66;5070716;28;20863;-75
2023/10/18 03:43:15;;;;;;;12.27;10.60;;;;;;;11.18;100.00;94984.41;5069728;28;20469;-75
2023/10/18 03:48:39;;;;;;;15.53;12.73;;;;;;;11.17;100.00;94982.75;5010726;28;20513;-76
2023/10/18 03:51:07;;;;;;;19.00;12.60;;;;;;;11.25;100.00;94976.84;5010232;28;20447;-76
2023/10/18 03:53:34;;;;;;;16.33;14.30;;;;;;;11.31;100.00;94978.13;5010471;28;20447;-75
2023/10/18 03:56:04;;;;;;;14.10;12.07;;;;;;;11.38;100.00;94990.59;4962030;28;21003;-75
2023/10/18 03:58:34;;;;;;;13.27;10.90;;;;;;;11.43;100.00;94991.03;5010603;28;20443;-75
2023/10/18 04:01:03;;;;;;;14.07;10.30;;;;;;;11.45;100.00;94986.47;5010569;28;20586;-75
2023/10/18 04:03:32;;;;;;;9.50;8.60;;;;;;;11.49;100.00;94984.41;5010537;28;20537;-75
2023/10/18 04:06:06;;;;;;;10.50;9.37;;;;;;;11.53;100.00;94975.28;5010711;28;20447;-75
2023/10/18 04:08:34;;;;;;;9.43;8.43;;;;;;;11.51;100.00;94964.06;5010542;28;20492;-75
2023/10/18 04:11:02;;;;;;;10.30;9.10;;;;;;;11.53;100.00;94956.88;5010529;28;20825;-75
2023/10/18 04:13:31;;;;;;;14.00;10.00;;;;;;;11.56;100.00;94963.66;5010296;28;21010;-75
2023/10/18 04:16:04;;;;;;;10.13;7.63;;;;;;;11.57;100.00;94962.72;5010729;28;20456;-75
2023/10/18 04:18:35;;;;;;;10.40;8.63;;;;;;;11.52;100.00;94967.53;5013985;28;20455;-76
2023/10/18 04:21:05;;;;;;;13.63;8.40;;;;;;;11.49;100.00;94958.94;5001737;28;20862;-75
2023/10/18 04:23:34;;;;;;;9.07;8.27;;;;;;;11.32;99.89;94964.88;5008802;28;20444;-75
2023/10/18 04:26:03;;;;;;;9.47;8.60;;;;;;;11.29;100.00;94964.31;5049669;28;20531;-76
2023/10/18 04:28:37;;;;;;;8.10;7.30;;;;;;;11.20;100.00;94967.69;5055888;28;20512;-76
2023/10/18 04:31:08;;;;;;;8.40;6.97;;;;;;;11.00;100.00;94977.31;5056007;28;20445;-76
2023/10/18 04:33:41;;;;;;;11.07;8.03;;;;;;;11.04;100.00;94963.78;5037859;28;20941;-76
2023/10/18 04:36:10;;;;;;;9.80;8.13;;;;;;;11.10;100.00;94972.91;5055695;28;20445;-76
2023/10/18 04:38:42;;;;;;;7.33;6.20;;;;;;;11.15;100.00;94970.72;5055941;28;20495;-75
2023/10/18 04:41:10;;;;;;;9.97;8.43;;;;;;;11.18;100.00;94975.72;5056092;28;20453;-75
2023/10/18 04:43:37;;;;;;;7.90;7.03;;;;;;;11.16;100.00;94970.59;5055540;28;20450;-76
2023/10/18 04:46:14;;;;;;;9.60;8.60;;;;;;;11.04;100.00;94974.28;5055512;28;20442;-75
2023/10/18 04:51:44;;;;;;;15.13;9.97;;;;;;;10.88;100.00;94978.31;5055146;28;20863;-75
2023/10/18 04:54:15;;;;;;;12.57;10.10;;;;;;;10.73;100.00;94976.03;5055885;28;20522;-76
2023/10/18 04:56:44;;;;;;;13.87;9.90;;;;;;;10.83;100.00;94976.91;5055329;28;20453;-77
2023/10/18 04:59:20;;;;;;;12.80;11.00;;;;;;;10.96;100.00;94976.69;5055346;28;20463;-77
2023/10/18 05:01:56;;;;;;;12.47;11.17;;;;;;;11.11;100.00;94985.09;5055595;28;20524;-77
2023/10/18 05:04:29;;;;;;;12.33;9.30;;;;;;;11.15;100.00;94992.56;5055317;28;20450;-74
2023/10/18 05:06:55;;;;;;;9.63;8.70;;;;;;;11.15;100.00;94995.19;5054954;28;20536;-74
2023/10/18 05:09:32;;;;;;;10.73;9.30;;;;;;;11.13;100.00;95005.00;5036311;28;20534;-74
2023/10/18 05:11:59;;;;;;;9.07;7.93;;;;;;;11.10;100.00;95015.75;5054957;28;20848;-74
2023/10/18 05:17:17;;;;;;;9.83;8.83;;;;;;;11.05;100.00;95017.13;5054255;28;20484;-75
2023/10/18 05:19:45;;;;;;;9.20;8.27;;;;;;;11.05;100.00;95023.22;5054956;28;20448;-74
2023/10/18 05:22:17;;;;;;;9.93;9.03;;;;;;;11.04;100.00;95034.66;5055008;28;20496;-75
2023/10/18 05:24:46;;;;;;;8.93;8.13;;;;;;;11.03;100.00;95038.25;5054744;28;20940;-74
2023/10/18 05:27:24;;;;;;;9.20;8.30;;;;;;;11.05;100.00;95044.22;5062095;28;20532;-74
2023/10/18 05:29:54;;;;;;;9.17;8.33;;;;;;;11.07;100.00;95046.72;5074535;28;20527;-74
2023/10/18 05:32:39;;;;;;;11.03;8.47;;;;;;;12.94;100.00;95048.56;5074706;28;20448;-81
2023/10/18 05:35:21;;;;;;;8.67;7.87;;;;;;;14.25;94.38;95069.66;5075482;28;20454;-80
2023/10/18 05:37:58;;;;;;;7.00;6.07;;;;;;;14.80;89.68;95070.44;5057972;28;20477;-76
2023/10/18 05:40:46;;;;;;;7.27;6.57;;;;;;;14.64;86.96;95074.72;5074354;28;20528;-76
2023/10/18 05:43:22;;;;;;;8.90;8.00;;;;;;;14.17;85.93;95072.22;5074674;28;20448;-74
2023/10/18 05:45:50;;;;;;;10.67;8.27;;;;;;;13.83;86.17;95077.22;5074354;28;20496;-74
2023/10/18 05:48:18;;;;;;;14.30;9.53;;;;;;;13.51;87.76;95077.59;5074419;28;20483;-74
2023/10/18 05:50:49;;;;;;;10.60;8.83;;;;;;;13.19;88.94;95075.31;5074110;28;20834;-75
2023/10/18 05:53:19;;;;;;;16.50;10.83;;;;;;;12.99;90.46;95074.47;5074069;28;20521;-74
2023/10/18 05:55:53;;;;;;;8.80;7.60;;;;;;;12.64;91.40;95069.78;5073930;28;20953;-76
2023/10/18 05:58:25;;;;;;;10.33;8.30;;;;;;;12.33;93.30;95067.25;5074233;28;20446;-78
2023/10/18 06:00:53;;;;;;;14.47;11.40;;;;;;;12.17;95.40;95061.72;5074138;28;21538;-75
2023/10/18 06:03:22;;;;;;;16.10;12.30;;;;;;;11.73;97.42;95060.28;5038676;28;20879;-75
2023/10/18 06:05:53;;;;;;;13.13;9.63;;;;;;;11.70;98.74;95057.94;5074243;28;20981;-77
2023/10/18 06:08:22;;;;;;;13.57;9.97;;;;;;;11.45;100.00;95056.59;5074281;28;20553;-77
2023/10/18 06:10:50;;;;;;;10.10;9.20;;;;;;;11.36;100.00;95062.63;5073759;28;20470;-75
2023/10/18 06:13:22;;;;;;;9.50;8.60;;;;;;;11.17;100.00;95061.56;5073756;28;20964;-76
2023/10/18 06:15:50;;;;;;;9.30;8.20;;;;;;;11.20;100.00;95057.84;5073783;28;20480;-75
2023/10/18 06:18:25;;;;;;;10.40;8.57;;;;;;;10.93;100.00;95054.91;5055379;28;20471;-76
2023/10/18 06:20:58;;;;;;;11.57;10.47;;;;;;;11.08;100.00;95057.09;5073840;28;20475;-74
2023/10/18 06:29:08;;;;;;;9.57;8.57;;;;;;;10.84;100.00;95054.72;5030721;28;20832;-74
2023/10/18 06:31:39;;;;;;;10.33;8.70;;;;;;;10.64;100.00;95046.81;5021582;28;20459;-74
2023/10/18 06:34:11;;;;;;;8.40;7.47;;;;;;;10.84;100.00;95057.34;5018975;28;20443;-74
2023/10/18 06:36:39;;;;;;;10.50;9.47;;;;;;;11.03;100.00;95054.00;5030674;28;20497;-73
2023/10/18 06:39:07;;;;;;;7.90;7.10;;;;;;;11.00;100.00;95053.44;5029725;28;21064;-74
2023/10/18 06:41:36;;;;;;;9.40;8.50;;;;;;;11.10;100.00;95055.16;5030249;28;20505;-74
2023/10/18 06:44:03;;;;;;;12.90;10.57;;;;;;;12.73;100.00;95060.25;5017428;28;20449;-75
2023/10/18 06:46:32;;;;;;;9.40;8.47;;;;;;;14.20;100.00;95053.44;5013388;28;20519;-75
2023/10/18 06:48:59;;;;;;;14.17;7.33;;;;;;;15.40;100.00;95067.09;5023355;28;20484;-75
2023/10/18 06:51:33;;;;;;;9.53;7.80;;;;;;;15.92;93.48;95072.41;5028582;28;20456;-74
2023/10/18 06:54:04;;;;;;;6.93;6.30;;;;;;;15.73;88.22;95090.16;4992151;28;20434;-74
2023/10/18 06:56:32;;;;;;;8.10;7.10;;;;;;;15.08;84.84;95086.19;5028817;28;20497;-76
2023/10/18 06:59:06;;;;;;;8.63;7.73;;;;;;;14.59;88.23;95079.63;5026694;28;20443;-74
2023/10/18 07:01:41;;;;;;;8.47;7.57;;;;;;;14.30;91.57;95077.13;5029002;28;20456;-75
2023/10/18 07:04:16;;;;;;;7.30;6.60;;;;;;;14.05;90.40;95081.28;5058135;28;20509;-74
2023/10/18 07:06:44;;;;;;;9.87;8.30;;;;;;;13.86;92.02;95075.13;5063900;28;20526;-74
2023/10/18 07:09:25;;;;;;;9.20;7.07;;;;;;;13.65;92.13;95077.16;5059312;28;20484;-74
2023/10/18 07:11:52;;;;;;;8.63;7.83;;;;;;;13.33;92.72;95069.63;5071745;28;20447;-74
2023/10/18 07:14:24;;;;;;;8.13;7.30;;;;;;;12.94;92.97;95079.34;5036750;28;20459;-74
2023/10/18 07:16:54;;;;;;;7.60;6.60;;;;;;;12.65;94.88;95077.53;5053505;28;20465;-74
2023/10/18 07:19:27;;;;;;;8.23;7.43;;;;;;;12.68;94.74;95086.97;5072206;28;20990;-74
2023/10/18 07:21:54;;;;;;;9.70;8.00;;;;;;;12.68;96.48;95085.16;5071743;28;20545;-74
2023/10/18 07:24:29;;;;;;;10.27;8.83;;;;;;;12.62;97.66;95085.72;5072204;28;21234;-74
2023/10/18 07:26:56;;;;;;;7.70;6.90;;;;;;;12.39;97.96;95079.88;5071905;28;20926;-74
2023/10/18 07:29:27;;;;;;;8.73;7.90;;;;;;;12.17;98.68;95079.31;5070604;28;20484;-75
2023/10/18 07:31:53;;;;;;;12.43;9.93;;;;;;;12.28;99.48;95079.16;5072350;28;20474;-73
2023/10/18 07:34:28;;;;;;;11.37;7.77;;;;;;;12.33;100.00;95079.59;5071954;28;20441;-75
2023/10/18 07:36:55;;;;;;;8.97;8.07;;;;;;;12.18;100.00;95087.06;5071989;28;20441;-75
2023/10/18 07:39:25;;;;;;;9.53;8.30;;;;;;;12.28;100.00;95085.25;5071581;28;20448;-74
2023/10/18 07:41:53;;;;;;;8.43;7.53;;;;;;;12.36;100.00;95081.94;5072048;28;20436;-75
2023/10/18 07:44:20;;;;;;;13.37;10.87;;;;;;;12.41;100.00;95077.94;5072668;28;20485;-74
2023/10/18 07:46:47;;;;;;;9.80;7.63;;;;;;;12.35;100.00;95078.47;5071934;28;20446;-74
2023/10/18 07:49:15;;;;;;;8.17;6.60;;;;;;;12.28;98.13;95077.38;5071966;28;20507;-74
2023/10/18 07:51:49;;;;;;;9.27;7.20;;;;;;;12.23;98.60;95082.22;5075222;28;20920;-74
2023/10/18 07:54:17;;;;;;;8.63;7.50;;;;;;;12.33;99.93;95075.16;5076381;28;20446;-74
2023/10/18 07:56:50;;;;;;;9.80;7.40;;;;;;;12.28;99.38;95073.91;5075078;28;20449;-74
2023/10/18 07:59:29;;;;;;;9.23;7.60;;;;;;;12.38;100.00;95066.84;5076247;28;20435;-74
2023/10/18 08:02:09;;;;;;;9.53;7.83;;;;;;;12.09;99.89;95078.16;5076031;28;20453;-74
2023/10/18 08:04:37;;;;;;;7.27;6.53;;;;;;;12.05;100.00;95066.25;5076283;28;20654;-75
2023/10/18 08:07:04;;;;;;;9.23;7.27;;;;;;;11.89;100.00;95073.00;5076050;28;20453;-74
2023/10/18 08:09:31;;;;;;;7.93;7.13;;;;;;;11.76;100.00;95066.13;5039963;28;20501;-74
2023/10/18 08:12:05;;;;;;;7.80;6.93;;;;;;;11.78;100.00;95068.66;5075460;28;20448;-74
2023/10/18 08:14:32;;;;;;;8.23;7.20;;;;;;;11.62;100.00;95077.00;5075478;28;20778;-73
2023/10/18 08:17:08;;;;;;;9.73;7.50;;;;;;;11.70;100.00;95071.06;5075020;28;20854;-74
2023/10/18 08:19:43;;;;;;;8.77;6.93;;;;;;;11.79;100.00;95075.56;5075382;28;20498;-74
2023/10/18 08:22:23;;;;;;;8.57;7.17;;;;;;;11.97;100.00;95073.97;5074964;28;20535;-74
2023/10/18 08:24:52;;;;;;;10.33;8.23;;;;;;;12.01;100.00;95077.16;5075678;28;20433;-75
2023/10/18 08:27:21;;;;;;;7.67;6.67;;;;;;;11.98;100.00;95082.69;5075412;28;20456;-74
2023/10/18 08:29:53;;;;;;;6.90;6.20;;;;;;;12.02;100.00;95081.47;5039929;28;20541;-74
2023/10/18 08:32:29;;;;;;;7.93;7.07;;;;;;;12.04;100.00;95076.91;5075326;28;20440;-74
2023/10/18 08:35:06;;;;;;;8.03;6.80;;;;;;;12.06;99.98;95082.84;5074988;28;21148;-74
2023/10/18 08:37:38;;;;;;;7.67;6.50;;;;;;;12.15;99.19;95082.06;5075027;28;20452;-75
2023/10/18 08:40:15;;;;;;;8.77;7.23;;;;;;;12.30;100.00;95087.75;5075073;28;20449;-74
2023/10/18 08:42:50;;;;;;;9.80;7.67;;;;;;;12.45;100.00;95086.41;5075156;28;20445;-75
2023/10/18 08:45:21;;;;;;;8.80;7.90;;;;;;;12.31;98.38;95092.06;5075619;28;20445;-78
2023/10/18 08:47:57;;;;;;;9.43;7.30;;;;;;;12.34;98.35;95095.25;5073989;28;20453;-77
2023/10/18 08:50:32;;;;;;;8.63;7.47;;;;;;;12.24;98.41;95089.13;5075405;28;20493;-77
2023/10/18 08:53:00;;;;;;;12.97;9.10;;;;;;;12.35;99.26;95099.53;5074803;28;20940;-77
2023/10/18 08:55:43;;;;;;;8.70;7.80;;;;;;;12.44;98.91;95091.81;5075375;28;20445;-77
2023/10/18 08:58:17;;;;;;;9.90;8.10;;;;;;;12.58;99.31;95092.22;5044653;28;20439;-78
2023/10/18 09:03:28;;;;;;;8.80;7.50;;;;;;;12.64;97.66;95090.84;5073701;28;20511;-77
2023/10/18 09:06:03;;;;;;;9.30;7.67;;;;;;;12.74;97.35;95099.59;5039000;28;20436;-77
2023/10/18 09:08:37;;;;;;;16.77;15.10;;;;;;;12.54;96.91;95095.28;5074239;28;20452;-77
2023/10/18 09:11:20;;;;;;;9.13;8.20;;;;;;;12.44;96.68;95091.81;5054347;28;20457;-77
2023/10/18 09:16:36;;;;;;;9.23;8.00;;;;;;;12.74;99.54;95098.78;5065918;28;20476;-77
2023/10/18 09:19:02;;;;;;;9.73;7.70;;;;;;;12.91;99.87;95092.78;5074246;28;20449;-76
2023/10/18 09:21:36;;;;;;;10.03;6.70;;;;;;;12.82;97.03;95105.00;5070961;28;20443;-77
2023/10/18 09:24:05;;;;;;;10.30;8.53;;;;;;;12.94;98.27;95092.50;5071381;28;20496;-77
2023/10/18 09:26:35;;;;;;;7.90;7.00;;;;;;;12.82;96.02;95102.38;5073355;28;20480;-77
2023/10/18 09:29:04;;;;;;;8.37;7.57;;;;;;;12.66;95.55;95107.34;5074122;28;20559;-79
2023/10/18 09:31:31;;;;;;;8.43;7.63;;;;;;;12.61;97.04;95099.03;5074508;28;20519;-78
2023/10/18 09:33:59;;;;;;;14.00;9.93;;;;;;;12.54;95.38;95103.19;5005338;28;20434;-78
2023/10/18 09:36:27;;;;;;;11.47;9.33;;;;;;;12.65;96.86;95111.78;5074261;28;20476;-77
2023/10/18 09:38:56;;;;;;;9.50;8.50;;;;;;;12.63;97.21;95102.34;5074126;28;20450;-77
2023/10/18 09:41:24;;;;;;;9.60;6.80;;;;;;;12.55;98.13;95086.41;5074020;28;20797;-77
2023/10/18 09:43:53;;;;;;;7.20;6.50;;;;;;;12.61;97.75;95089.31;5039837;28;20835;-77
2023/10/18 09:46:21;;;;;;;8.07;7.27;;;;;;;12.60;96.41;95087.66;5074595;28;20446;-77
2023/10/18 09:48:48;;;;;;;6.57;5.97;;;;;;;12.52;96.76;95089.31;5034390;28;20474;-77
2023/10/18 09:51:20;;;;;;;11.80;7.63;;;;;;;12.61;97.50;95086.69;5073917;28;20556;-77
2023/10/18 09:53:50;;;;;;;10.03;7.67;;;;;;;12.76;96.66;95087.13;5073995;28;20454;-77
2023/10/18 09:56:24;;;;;;;7.60;6.53;;;;;;;12.80;96.81;95088.50;5073970;28;20446;-75
2023/10/18 09:58:53;;;;;;;9.10;8.20;;;;;;;12.94;97.43;95088.06;5073583;28;21018;-77
2023/10/18 10:01:29;;;;;;;6.97;6.27;;;;;;;12.90;95.87;95085.88;5073641;28;20555;-76
2023/10/18 10:03:57;;;;;;;8.57;7.67;;;;;;;13.09;95.76;95082.41;5069943;28;20461;-78
2023/10/18 10:06:25;;;;;;;8.10;7.03;;;;;;;13.07;95.85;95076.44;5073040;28;20428;-77
2023/10/18 10:08:55;;;;;;;7.67;6.80;;;;;;;13.02;94.72;95075.06;5070278;28;20443;-77
2023/10/18 10:11:29;;;;;;;8.37;7.10;;;;;;;13.06;94.43;95064.25;5072178;28;20795;-76
2023/10/18 10:14:00;;;;;;;9.10;7.00;;;;;;;13.24;94.87;95057.28;5071127;28;20450;-77
2023/10/18 10:16:31;;;;;;;7.70;6.87;;;;;;;13.29;94.51;95063.78;5072646;28;20473;-77
2023/10/18 10:19:04;;;;;;;8.73;6.43;;;;;;;13.20;93.62;95058.53;5070948;28;20509;-78
2023/10/18 10:21:34;;;;;;;9.90;7.20;;;;;;;13.18;94.79;95060.50;5072992;28;20450;-77
2023/10/18 10:24:29;;;;;;;7.00;6.30;;;;;;;13.24;94.71;95049.38;5073158;28;20448;-79
2023/10/18 10:26:54;;;;;;;7.43;6.57;;;;;;;13.29;94.27;95047.97;5073474;28;20474;-78
2023/10/18 10:29:37;;;;;;;8.27;6.40;;;;;;;13.23;93.39;95042.44;5069829;28;20842;-78
2023/10/18 10:32:05;;;;;;;10.40;7.27;;;;;;;13.32;93.40;95050.34;5073344;28;20822;-77
2023/10/18 10:34:37;;;;;;;7.70;6.93;;;;;;;13.39;93.39;95042.69;5073226;28;20452;-75
2023/10/18 10:37:07;;;;;;;8.30;6.30;;;;;;;13.35;93.22;95036.06;5073038;28;20451;-77
2023/10/18 10:39:43;;;;;;;9.50;6.87;;;;;;;13.40;93.68;95031.19;5072506;28;20493;-77
2023/10/18 10:42:19;;;;;;;8.87;7.23;;;;;;;13.66;95.09;95033.16;5072666;28;20491;-77
2023/10/18 10:45:10;;;;;;;9.93;7.13;;;;;;;13.67;92.26;95024.28;5072986;28;20501;-75
2023/10/18 10:47:44;;;;;;;7.43;6.70;;;;;;;13.81;92.99;95024.63;5039922;28;20441;-77
2023/10/18 10:50:12;;;;;;;6.97;6.27;;;;;;;13.78;91.71;95026.72;5061066;28;20519;-76
2023/10/18 10:52:44;;;;;;;8.03;7.17;;;;;;;13.71;91.27;95015.09;5072543;28;20450;-76
2023/10/18 10:55:20;;;;;;;7.13;6.47;;;;;;;13.69;91.40;95022.31;5072435;28;20456;-76
2023/10/18 10:57:48;;;;;;;9.10;7.27;;;;;;;13.45;93.00;95021.03;5070450;28;20468;-76
2023/10/18 11:03:06;;;;;;;10.00;8.80;;;;;;;13.57;92.56;95025.13;5065438;28;20506;-76
2023/10/18 11:05:38;;;;;;;7.83;6.80;;;;;;;13.47;92.50;95026.16;5072278;28;20453;-76
2023/10/18 11:08:06;;;;;;;7.17;6.47;;;;;;;13.49;92.78;95027.66;5072763;28;20443;-77
2023/10/18 11:10:36;;;;;;;8.20;7.40;;;;;;;13.66;93.17;95031.38;5072580;28;20484;-76
2023/10/18 11:13:04;;;;;;;8.77;7.27;;;;;;;13.72;92.74;95029.94;5067124;28;20460;-77
2023/10/18 11:15:32;;;;;;;9.07;7.67;;;;;;;13.73;91.71;95032.44;5057887;28;20460;-78
2023/10/18 11:18:19;;;;;;;8.50;7.33;;;;;;;13.74;91.17;95025.34;5066043;28;20917;-78
2023/10/18 11:21:05;;;;;;;10.23;7.13;;;;;;;13.64;91.29;95033.31;5065885;28;20938;-78
2023/10/18 11:23:33;;;;;;;8.63;7.10;;;;;;;13.67;91.36;95030.38;5063259;28;20492;-77
2023/10/18 11:26:08;;;;;;;8.20;7.43;;;;;;;13.67;91.91;95022.47;5071391;28;20445;-77
2023/10/18 11:28:37;;;;;;;7.77;7.03;;;;;;;13.72;91.76;95025.50;5068283;28;20826;-77
2023/10/18 11:31:05;;;;;;;7.40;6.57;;;;;;;13.64;91.09;95031.50;5071013;28;20484;-77
2023/10/18 11:33:36;;;;;;;9.20;7.23;;;;;;;13.63;91.17;95029.00;5070834;28;20528;-77
2023/10/18 11:36:08;;;;;;;10.57;7.93;;;;;;;13.62;91.44;95022.91;5072018;28;20455;-78
2023/10/18 11:38:35;;;;;;;9.90;8.30;;;;;;;13.76;92.46;95026.03;5072053;28;20454;-77
2023/10/18 11:41:09;;;;;;;11.87;9.37;;;;;;;13.89;92.05;95024.72;5067004;28;20454;-76
2023/10/18 11:43:40;;;;;;;9.93;8.93;;;;;;;13.80;91.60;95030.88;5065139;28;20467;-77
2023/10/18 11:46:08;;;;;;;11.33;9.93;;;;;;;13.91;91.48;95029.84;5059494;28;20443;-77
2023/10/18 11:48:36;;;;;;;14.83;11.30;;;;;;;14.00;90.93;95031.59;5072253;28;20807;-77
2023/10/18 11:51:06;;;;;;;14.70;7.87;;;;;;;13.97;89.33;95036.34;5064599;28;20498;-78
2023/10/18 11:53:35;;;;;;;12.00;8.30;;;;;;;13.86;87.98;95022.34;5054157;28;20812;-77
2023/10/18 11:56:05;;;;;;;8.40;7.60;;;;;;;13.96;88.20;95011.78;5072445;28;20482;-78
2023/10/18 11:58:33;;;;;;;18.80;9.87;;;;;;;14.01;88.09;95011.31;5067061;28;21008;-79
2023/10/18 12:01:05;;;;;;;14.50;9.87;;;;;;;13.88;88.34;95009.88;5061425;28;21000;-78